Devocean — WDG3995 — position and weather

sailwx.info

Track history (hours):
 
Tides and Currents Weather Stations Pressure Air Temp Water Temp Dewpoint Dewpoint Depression Visibility Wind Speed Wind Dir Waves Ship Positions

Devocean

Owner: Pincus, David L, Lake Sherwood, CA. More information available from US FCC via Universal Licensing System and Coast Guard Vessel Documentation Center.

Last reported at 2018-May-28 23:56 UTC. Time now 2018-Jun-19 12:20 UTC.
Position N 37°51' W 122°19'.
Warning: this ship's position is 21 days out of date.

Length 25 m.

Type: Pleasure craft. MMSI: 338194845.

Date/timePositionNaut miles runAvg speedWind from/ knotsBaromVisibWave heightAir tempDewpointWater temp
2018-May-28 23:56N 37°51' W 122°19'1 2.7
2018-May-28 23:29N 37°51' W 122°20'611.4
2018-May-28 23:00N 37°48' W 122°27'0 0.7
2018-May-28 22:30N 37°49' W 122°26'2 4.1
2018-May-28 22:00N 37°49' W 122°29'3 6.3
2018-May-28 21:30N 37°52' W 122°27'4 8.2
2018-May-28 21:00N 37°49' W 122°24'6 3.6
2018-May-28 19:29N 37°44' W 122°21'4 7.7
2018-May-28 19:00N 37°47' W 122°23'3 6.4
2018-May-28 18:30N 37°48' W 122°27'5 9.9
2018-May-28 18:00N 37°51' W 122°21'  
Track history (hours):
 
Tides and Currents Weather Stations Pressure Air Temp Water Temp Dewpoint Dewpoint Depression Visibility Wind Speed Wind Dir Waves Ship Positions

Devocean

Owner: Pincus, David L, Lake Sherwood, CA. More information available from US FCC via Universal Licensing System and Coast Guard Vessel Documentation Center.

Last reported at 2018-May-28 23:56 UTC. Time now 2018-Jun-19 12:20 UTC.
Position N 37°51' W 122°19'.
Warning: this ship's position is 21 days out of date.

Length 25 m.

Type: Pleasure craft. MMSI: 338194845.

Date/timePositionNaut miles runAvg speedWind from/ knotsBaromVisibWave heightAir tempDewpointWater temp
2018-May-28 23:56N 37°51' W 122°19'1 2.7
2018-May-28 23:29N 37°51' W 122°20'611.4
2018-May-28 23:00N 37°48' W 122°27'0 0.7
2018-May-28 22:30N 37°49' W 122°26'2 4.1
2018-May-28 22:00N 37°49' W 122°29'3 6.3
2018-May-28 21:30N 37°52' W 122°27'4 8.2
2018-May-28 21:00N 37°49' W 122°24'6 3.6
2018-May-28 19:29N 37°44' W 122°21'4 7.7
2018-May-28 19:00N 37°47' W 122°23'3 6.4
2018-May-28 18:30N 37°48' W 122°27'5 9.9
2018-May-28 18:00N 37°51' W 122°21'  

Dump ship's entire track history